Dr.kaiyo — JD2325 — position and weather

sailwx.info

Track history (hours):
 
Tides and Currents Weather Stations Pressure Air Temp Water Temp Dewpoint Dewpoint Depression Visibility Wind Speed Wind Dir Waves Ship Positions

Dr.kaiyo

Last reported at 2016-Feb-10 04:33 UTC. Time now 2016-Feb-13 15:14 UTC.
Position N 34°41' E 135°14'.

Length 31 m.

Type: Other ship. MMSI: 431301823.

Date/timePositionNaut miles runAvg speedWind from/ knotsBaromVisibWave heightAir tempDewpointWater temp
2016-Feb-10 04:33N 34°41' E 135°14'5 4.2
2016-Feb-10 03:24N 34°40' E 135°19'6 7.1
2016-Feb-10 02:33N 34°35' E 135°16'1212.1
2016-Feb-10 01:33N 34°30' E 135°02'1212.5
2016-Feb-10 00:33N 34°40' E 135°12'2 0.1
2016-Feb-09 04:27N 34°41' E 135°12'7 6.9
2016-Feb-09 03:30N 34°41' E 135°20'0 0.0
2016-Feb-09 02:18N 34°41' E 135°20'1 1.9
2016-Feb-09 01:33N 34°41' E 135°19'1010.1
2016-Feb-09 00:33N 34°38' E 135°07'6 5.8
2016-Feb-08 23:33N 34°41' E 135°12'5 0.3
2016-Feb-08 05:33N 34°37' E 135°10'7 6.7
2016-Feb-08 04:33N 34°33' E 135°04'6 5.6
2016-Feb-08 03:33N 34°28' E 135°05'7 7.1
2016-Feb-08 02:32N 34°30' E 135°13'7 7.1
2016-Feb-08 01:33N 34°33' E 135°21'6 6.2
2016-Feb-08 00:33N 34°40' E 135°20'6 5.8
2016-Feb-07 23:33N 34°41' E 135°13'  
2016-Feb-04 04:33N 34°41' E 135°14'5 4.4
2016-Feb-04 03:22N 34°40' E 135°20'5 5.8
2016-Feb-04 02:33N 34°36' E 135°17'1212.0
2016-Feb-04 01:33N 34°27' E 135°07'1212.3
2016-Feb-04 00:33N 34°39' E 135°11'3 0.1
2016-Feb-03 04:33N 34°41' E 135°14'5 4.8
2016-Feb-03 03:29N 34°40' E 135°20'3 3.3
2016-Feb-03 02:33N 34°37' E 135°19'1211.9
2016-Feb-03 01:33N 34°29' E 135°08'1110.8
2016-Feb-03 00:33N 34°39' E 135°11'2 0.1
2016-Feb-02 04:33N 34°42' E 135°13'3 2.4
2016-Feb-02 03:22N 34°39' E 135°12'2 2.6
2016-Feb-02 02:33N 34°37' E 135°12'9 9.4
2016-Feb-02 01:33N 34°28' E 135°07'1111.4
2016-Feb-02 00:33N 34°39' E 135°11'0 0.0
2016-Feb-01 05:33N 34°39' E 135°11'5 5.5
2016-Feb-01 04:33N 34°35' E 135°16'6 5.5
2016-Feb-01 03:31N 34°40' E 135°20'5 5.7
2016-Feb-01 02:34N 34°38' E 135°14'4 3.8
2016-Feb-01 01:28N 34°41' E 135°12'0 0.0
2016-Feb-01 00:22N 34°41' E 135°12'  
Track history (hours):
 
Tides and Currents Weather Stations Pressure Air Temp Water Temp Dewpoint Dewpoint Depression Visibility Wind Speed Wind Dir Waves Ship Positions

Dr.kaiyo

Last reported at 2016-Feb-10 04:33 UTC. Time now 2016-Feb-13 15:14 UTC.
Position N 34°41' E 135°14'.

Length 31 m.

Type: Other ship. MMSI: 431301823.

Date/timePositionNaut miles runAvg speedWind from/ knotsBaromVisibWave heightAir tempDewpointWater temp
2016-Feb-10 04:33N 34°41' E 135°14'5 4.2
2016-Feb-10 03:24N 34°40' E 135°19'6 7.1
2016-Feb-10 02:33N 34°35' E 135°16'1212.1
2016-Feb-10 01:33N 34°30' E 135°02'1212.5
2016-Feb-10 00:33N 34°40' E 135°12'2 0.1
2016-Feb-09 04:27N 34°41' E 135°12'7 6.9
2016-Feb-09 03:30N 34°41' E 135°20'0 0.0
2016-Feb-09 02:18N 34°41' E 135°20'1 1.9
2016-Feb-09 01:33N 34°41' E 135°19'1010.1
2016-Feb-09 00:33N 34°38' E 135°07'6 5.8
2016-Feb-08 23:33N 34°41' E 135°12'5 0.3
2016-Feb-08 05:33N 34°37' E 135°10'7 6.7
2016-Feb-08 04:33N 34°33' E 135°04'6 5.6
2016-Feb-08 03:33N 34°28' E 135°05'7 7.1
2016-Feb-08 02:32N 34°30' E 135°13'7 7.1
2016-Feb-08 01:33N 34°33' E 135°21'6 6.2
2016-Feb-08 00:33N 34°40' E 135°20'6 5.8
2016-Feb-07 23:33N 34°41' E 135°13'  
2016-Feb-04 04:33N 34°41' E 135°14'5 4.4
2016-Feb-04 03:22N 34°40' E 135°20'5 5.8
2016-Feb-04 02:33N 34°36' E 135°17'1212.0
2016-Feb-04 01:33N 34°27' E 135°07'1212.3
2016-Feb-04 00:33N 34°39' E 135°11'3 0.1
2016-Feb-03 04:33N 34°41' E 135°14'5 4.8
2016-Feb-03 03:29N 34°40' E 135°20'3 3.3
2016-Feb-03 02:33N 34°37' E 135°19'1211.9
2016-Feb-03 01:33N 34°29' E 135°08'1110.8
2016-Feb-03 00:33N 34°39' E 135°11'2 0.1
2016-Feb-02 04:33N 34°42' E 135°13'3 2.4
2016-Feb-02 03:22N 34°39' E 135°12'2 2.6
2016-Feb-02 02:33N 34°37' E 135°12'9 9.4
2016-Feb-02 01:33N 34°28' E 135°07'1111.4
2016-Feb-02 00:33N 34°39' E 135°11'0 0.0
2016-Feb-01 05:33N 34°39' E 135°11'5 5.5
2016-Feb-01 04:33N 34°35' E 135°16'6 5.5
2016-Feb-01 03:31N 34°40' E 135°20'5 5.7
2016-Feb-01 02:34N 34°38' E 135°14'4 3.8
2016-Feb-01 01:28N 34°41' E 135°12'0 0.0
2016-Feb-01 00:22N 34°41' E 135°12'  

Dump ship's entire track history